createdAt,value
2022-08-31T00:00:33.619Z,12.38
2022-08-31T00:03:20.110Z,11.18
2022-08-31T00:05:49.154Z,10.55
2022-08-31T00:08:18.055Z,11.55
2022-08-31T00:10:48.258Z,10.48
2022-08-31T00:16:59.605Z,17.58
2022-08-31T00:19:28.311Z,17.63
2022-08-31T00:21:57.025Z,20.20
2022-08-31T00:24:25.823Z,21.08
2022-08-31T00:26:54.517Z,15.57
2022-08-31T00:29:23.202Z,17.83
2022-08-31T00:31:51.959Z,17.55
2022-08-31T00:34:22.779Z,18.93
2022-08-31T00:36:51.501Z,18.23
2022-08-31T00:39:20.260Z,16.05
2022-08-31T00:41:49.160Z,10.13
2022-08-31T00:44:17.908Z,10.63
2022-08-31T00:46:47.021Z,15.03
2022-08-31T00:49:19.127Z,16.70
2022-08-31T00:51:52.829Z,16.03
2022-08-31T00:54:27.327Z,20.00
2022-08-31T00:56:56.398Z,24.10
2022-08-31T00:59:25.816Z,23.57
2022-08-31T01:01:54.755Z,18.60
2022-08-31T01:04:23.734Z,19.80
2022-08-31T01:06:54.372Z,16.20
2022-08-31T01:09:25.260Z,16.00
2022-08-31T01:11:54.572Z,13.93
2022-08-31T01:14:23.542Z,13.90
2022-08-31T01:16:56.009Z,12.83
2022-08-31T01:19:32.385Z,12.43
2022-08-31T01:22:10.616Z,12.87
2022-08-31T01:24:43.362Z,16.03
2022-08-31T01:27:15.319Z,14.57
2022-08-31T01:29:44.127Z,13.23
2022-08-31T01:32:12.896Z,12.50
2022-08-31T01:34:41.603Z,11.97
2022-08-31T01:37:10.367Z,12.23
2022-08-31T01:39:40.503Z,12.03
2022-08-31T01:42:09.493Z,14.33
2022-08-31T01:44:38.221Z,13.47
2022-08-31T01:47:07.025Z,13.53
2022-08-31T01:49:35.777Z,11.53
2022-08-31T01:52:05.660Z,10.40
2022-08-31T01:54:34.351Z,9.80
2022-08-31T01:57:04.552Z,11.57
2022-08-31T01:59:33.254Z,9.43
2022-08-31T02:02:01.988Z,10.27
2022-08-31T02:04:31.046Z,9.63
2022-08-31T02:07:01.762Z,12.17
2022-08-31T02:09:31.719Z,10.73
2022-08-31T02:12:00.396Z,9.53
2022-08-31T02:14:30.511Z,11.30
2022-08-31T02:16:59.195Z,11.57
2022-08-31T02:19:27.827Z,13.27
2022-08-31T02:21:56.510Z,22.70
2022-08-31T02:24:25.238Z,18.33
2022-08-31T02:26:54.100Z,16.47
2022-08-31T02:29:22.913Z,19.17
2022-08-31T02:31:53.319Z,19.17
2022-08-31T02:34:22.329Z,18.80
2022-08-31T02:36:51.010Z,19.07
2022-08-31T02:39:20.039Z,18.73
2022-08-31T02:41:49.340Z,16.87
2022-08-31T02:44:18.280Z,17.90
2022-08-31T02:46:47.096Z,19.03
2022-08-31T02:49:17.254Z,19.90
2022-08-31T02:51:46.393Z,15.57
2022-08-31T02:54:15.560Z,14.93
2022-08-31T02:56:44.488Z,15.33
2022-08-31T02:59:13.224Z,13.73
2022-08-31T03:01:42.332Z,12.37
2022-08-31T03:04:11.085Z,11.37
2022-08-31T03:06:41.181Z,12.90
2022-08-31T03:09:09.908Z,9.93
2022-08-31T03:11:38.583Z,8.67
2022-08-31T03:14:07.259Z,10.83
2022-08-31T03:16:35.982Z,15.47
2022-08-31T03:19:04.825Z,17.53
2022-08-31T03:21:33.506Z,16.83
2022-08-31T03:24:03.671Z,16.50
2022-08-31T03:26:32.353Z,17.03
2022-08-31T03:29:01.122Z,20.03
2022-08-31T03:31:29.883Z,21.53
2022-08-31T03:33:59.370Z,22.73
2022-08-31T03:36:28.191Z,26.17
2022-08-31T03:38:57.031Z,16.83
2022-08-31T03:41:28.416Z,20.07
2022-08-31T03:43:57.399Z,18.53
2022-08-31T03:46:26.103Z,14.07
2022-08-31T03:48:54.872Z,15.93
2022-08-31T03:51:23.499Z,12.63
2022-08-31T03:53:52.432Z,11.00
2022-08-31T03:56:21.423Z,14.33
2022-08-31T03:58:52.042Z,13.90
2022-08-31T04:01:20.811Z,13.70
2022-08-31T04:03:49.546Z,14.73
2022-08-31T04:06:18.224Z,14.27
2022-08-31T04:08:47.082Z,14.10
2022-08-31T04:11:17.807Z,12.17
2022-08-31T04:13:53.157Z,15.60
2022-08-31T04:16:24.398Z,12.73
2022-08-31T04:18:53.228Z,14.70
2022-08-31T04:21:23.924Z,14.20
2022-08-31T04:23:53.591Z,16.13
2022-08-31T04:26:24.249Z,14.90
2022-08-31T04:28:55.193Z,18.80
2022-08-31T04:31:27.114Z,15.70
2022-08-31T04:33:57.140Z,15.20
2022-08-31T04:36:27.493Z,18.23
2022-08-31T04:38:58.879Z,21.23
2022-08-31T04:41:29.623Z,23.97
2022-08-31T04:44:01.918Z,19.77
2022-08-31T04:46:31.922Z,28.30
2022-08-31T04:49:00.886Z,25.88
2022-08-31T04:51:32.122Z,27.00
2022-08-31T04:54:02.888Z,28.00
2022-08-31T04:56:33.517Z,25.10
2022-08-31T04:59:06.495Z,26.83
2022-08-31T05:01:42.875Z,28.25
2022-08-31T05:04:14.379Z,26.02
2022-08-31T05:06:44.755Z,22.52
2022-08-31T05:09:16.418Z,18.88
2022-08-31T05:11:45.981Z,13.18
2022-08-31T05:14:16.074Z,12.75
2022-08-31T05:16:45.302Z,10.35
2022-08-31T05:19:16.153Z,19.88
2022-08-31T05:21:45.752Z,7.38
2022-08-31T05:24:16.871Z,31.67
2022-08-31T05:26:48.713Z,32.97
2022-08-31T05:29:20.344Z,22.45
2022-08-31T05:31:52.400Z,39.22
2022-08-31T05:34:22.681Z,14.45
2022-08-31T05:36:54.596Z,11.55
2022-08-31T05:39:23.393Z,13.13
2022-08-31T05:41:52.170Z,15.57
2022-08-31T05:44:22.808Z,12.73
2022-08-31T05:47:00.958Z,14.90
2022-08-31T05:49:32.670Z,11.48
2022-08-31T05:52:02.526Z,11.02
2022-08-31T05:54:31.266Z,14.23
2022-08-31T05:57:01.489Z,9.48
2022-08-31T05:59:32.792Z,9.32
2022-08-31T06:02:02.248Z,9.27
2022-08-31T06:04:31.095Z,7.55
2022-08-31T06:06:59.801Z,8.98
2022-08-31T06:09:28.558Z,10.73
2022-08-31T06:11:57.245Z,16.17
2022-08-31T06:14:26.081Z,10.30
2022-08-31T06:16:56.956Z,13.02
2022-08-31T06:19:26.044Z,14.80
2022-08-31T06:21:54.766Z,8.77
2022-08-31T06:24:23.458Z,12.02
2022-08-31T06:26:58.764Z,9.75
2022-08-31T06:29:31.842Z,12.55
2022-08-31T06:32:08.268Z,9.77
2022-08-31T06:34:38.060Z,9.50
2022-08-31T06:37:08.007Z,10.90
2022-08-31T06:39:45.211Z,13.65
2022-08-31T06:42:14.138Z,12.32
2022-08-31T06:44:42.854Z,8.55
2022-08-31T06:47:12.999Z,86.20
2022-08-31T06:49:41.729Z,11.55
2022-08-31T06:52:10.807Z,11.55
2022-08-31T06:54:39.539Z,12.52
2022-08-31T06:57:08.371Z,14.52
2022-08-31T06:59:37.215Z,11.85
2022-08-31T07:02:06.157Z,11.32
2022-08-31T07:04:38.654Z,8.27
2022-08-31T07:07:11.696Z,9.00
2022-08-31T07:09:41.443Z,7.38
2022-08-31T07:12:10.572Z,9.23
2022-08-31T07:14:39.344Z,9.27
2022-08-31T07:17:08.609Z,10.70
2022-08-31T07:19:44.845Z,11.77
2022-08-31T07:22:15.559Z,93.00
2022-08-31T07:24:44.502Z,9.43
2022-08-31T07:27:18.775Z,9.13
2022-08-31T07:29:48.124Z,9.55
2022-08-31T07:32:17.951Z,8.40
2022-08-31T07:34:55.210Z,10.27
2022-08-31T07:37:43.620Z,10.93
2022-08-31T07:40:30.640Z,55.10
2022-08-31T07:43:04.803Z,101.68
2022-08-31T07:45:37.246Z,16.42
2022-08-31T07:48:08.149Z,12.80
2022-08-31T07:50:45.148Z,13.40
2022-08-31T07:53:14.939Z,14.75
2022-08-31T07:55:46.221Z,11.63
2022-08-31T07:58:30.348Z,12.90
2022-08-31T08:01:03.381Z,11.73
2022-08-31T08:03:32.086Z,10.25
2022-08-31T08:06:02.220Z,11.10
2022-08-31T08:08:32.443Z,31.98
2022-08-31T08:11:01.689Z,8.95
2022-08-31T08:13:31.675Z,10.07
2022-08-31T08:16:00.624Z,23.88
2022-08-31T08:18:29.586Z,26.77
2022-08-31T08:20:58.515Z,29.00
2022-08-31T08:23:29.200Z,30.08
2022-08-31T08:26:01.715Z,25.98
2022-08-31T08:28:40.916Z,23.83
2022-08-31T08:31:15.303Z,22.60
2022-08-31T08:33:44.688Z,21.02
2022-08-31T08:36:19.376Z,22.15
2022-08-31T08:38:52.125Z,21.13
2022-08-31T08:41:23.079Z,21.48
2022-08-31T08:43:53.465Z,18.40
2022-08-31T08:46:35.078Z,21.50
2022-08-31T08:49:24.722Z,22.88
2022-08-31T08:51:57.480Z,15.32
2022-08-31T08:54:32.541Z,15.27
2022-08-31T08:57:04.796Z,16.85
2022-08-31T08:59:33.715Z,22.90
2022-08-31T09:02:07.158Z,26.42
2022-08-31T09:04:59.961Z,25.35
2022-08-31T09:07:57.259Z,27.83
2022-08-31T09:10:33.129Z,27.58
2022-08-31T09:13:16.242Z,17.48
2022-08-31T09:16:12.135Z,20.85
2022-08-31T09:18:49.015Z,16.00
2022-08-31T09:21:22.272Z,11.73
2022-08-31T09:24:02.346Z,8.80
2022-08-31T09:26:35.842Z,7.35
2022-08-31T09:29:05.214Z,7.30
2022-08-31T09:31:38.509Z,7.07
2022-08-31T09:34:14.858Z,14.63
2022-08-31T09:36:43.718Z,52.67
2022-08-31T09:39:21.974Z,12.23
2022-08-31T09:41:55.374Z,16.65
2022-08-31T09:44:34.113Z,13.30
2022-08-31T09:47:05.828Z,10.70
2022-08-31T09:49:38.033Z,13.05
2022-08-31T09:52:46.107Z,15.27
2022-08-31T09:55:21.627Z,9.15
2022-08-31T09:57:59.332Z,10.25
2022-08-31T10:00:35.449Z,13.32
2022-08-31T10:03:19.347Z,11.63
2022-08-31T10:05:50.699Z,11.88
2022-08-31T10:08:35.535Z,13.77
2022-08-31T10:11:10.619Z,17.95
2022-08-31T10:13:43.563Z,16.75
2022-08-31T10:16:23.364Z,20.98
2022-08-31T10:18:59.273Z,17.63
2022-08-31T10:21:37.395Z,15.88
2022-08-31T10:24:21.949Z,21.27
2022-08-31T10:26:57.776Z,19.42
2022-08-31T10:29:37.151Z,29.08
2022-08-31T10:32:14.513Z,25.15
2022-08-31T10:35:00.834Z,22.60
2022-08-31T10:37:36.881Z,15.60
2022-08-31T10:40:10.478Z,19.15
2022-08-31T10:42:43.897Z,18.50
2022-08-31T10:45:18.935Z,28.92
2022-08-31T10:47:51.328Z,25.73
2022-08-31T10:50:29.527Z,20.80
2022-08-31T10:53:07.993Z,34.80
2022-08-31T10:55:42.051Z,31.90
2022-08-31T10:58:22.723Z,32.03
2022-08-31T11:00:56.632Z,183.67
2022-08-31T11:03:44.659Z,17.80
2022-08-31T11:06:22.992Z,21.50
2022-08-31T11:08:57.804Z,17.27
2022-08-31T11:11:42.463Z,22.40
2022-08-31T11:14:48.696Z,22.92
2022-08-31T11:17:42.866Z,27.35
2022-08-31T11:20:40.101Z,30.27
2022-08-31T11:23:50.174Z,30.13
2022-08-31T11:26:53.093Z,28.63
2022-08-31T11:29:37.532Z,28.85
2022-08-31T11:32:14.522Z,25.65
2022-08-31T11:34:51.598Z,18.70
2022-08-31T11:37:52.711Z,19.15
2022-08-31T11:41:12.846Z,22.80
2022-08-31T11:43:53.948Z,15.20
2022-08-31T11:47:05.155Z,12.40
2022-08-31T11:49:41.041Z,14.43
2022-08-31T11:52:29.907Z,12.65
2022-08-31T11:55:10.465Z,15.93
2022-08-31T11:58:11.524Z,17.00
2022-08-31T12:00:49.406Z,20.38
2022-08-31T12:03:46.374Z,15.40
2022-08-31T12:06:56.842Z,21.05
2022-08-31T12:09:52.394Z,12.13
2022-08-31T12:12:34.975Z,23.13
2022-08-31T12:15:11.337Z,18.38
2022-08-31T12:17:51.625Z,22.90
2022-08-31T12:20:27.950Z,24.60
2022-08-31T12:23:37.923Z,27.92
2022-08-31T12:27:00.645Z,318.00
2022-08-31T12:29:33.008Z,402.73
2022-08-31T12:32:22.980Z,377.38
2022-08-31T12:34:59.884Z,370.65
2022-08-31T12:37:32.088Z,333.42
2022-08-31T12:40:14.818Z,271.30
2022-08-31T12:42:57.885Z,264.65
2022-08-31T12:45:53.507Z,24.25
2022-08-31T12:48:54.258Z,22.33
2022-08-31T12:51:44.222Z,23.35
2022-08-31T12:54:35.916Z,16.25
2022-08-31T12:57:13.091Z,22.65
2022-08-31T13:00:01.173Z,18.30
2022-08-31T13:02:35.764Z,26.92
2022-08-31T13:05:05.349Z,24.70
2022-08-31T13:07:35.802Z,25.58
2022-08-31T13:10:08.412Z,20.33
2022-08-31T13:12:37.685Z,29.27
2022-08-31T13:15:10.537Z,33.63
2022-08-31T13:17:45.614Z,206.32
2022-08-31T13:20:20.321Z,24.85
2022-08-31T13:22:58.206Z,31.88
2022-08-31T13:25:33.468Z,37.92
2022-08-31T13:28:02.821Z,34.13
2022-08-31T13:30:38.871Z,152.35
2022-08-31T13:33:23.779Z,292.30
2022-08-31T13:35:55.816Z,335.10
2022-08-31T13:38:40.720Z,312.70
2022-08-31T13:41:17.887Z,337.60
2022-08-31T13:43:59.120Z,377.88
2022-08-31T13:46:42.406Z,385.88
2022-08-31T13:49:29.859Z,441.95
2022-08-31T13:51:58.911Z,437.52
2022-08-31T13:54:30.725Z,488.33
2022-08-31T13:57:12.080Z,431.88
2022-08-31T13:59:42.307Z,444.27
2022-08-31T14:02:36.781Z,488.15
2022-08-31T14:05:10.602Z,592.53
2022-08-31T14:08:02.539Z,529.63
2022-08-31T14:10:36.491Z,488.40
2022-08-31T14:13:17.483Z,479.02
2022-08-31T14:15:53.638Z,437.90
2022-08-31T14:18:27.772Z,445.65
2022-08-31T14:21:23.844Z,433.75
2022-08-31T14:23:56.110Z,461.85
2022-08-31T14:26:26.649Z,490.73
2022-08-31T14:28:57.484Z,446.88
2022-08-31T14:31:29.271Z,479.63
2022-08-31T14:34:22.398Z,465.30
2022-08-31T14:36:58.093Z,477.17
2022-08-31T14:39:32.225Z,496.40
2022-08-31T14:42:03.487Z,522.25
2022-08-31T14:44:34.427Z,502.63
2022-08-31T14:47:03.465Z,470.35
2022-08-31T14:49:36.341Z,500.27
2022-08-31T14:52:08.526Z,490.13
2022-08-31T14:54:38.076Z,491.23
2022-08-31T14:57:12.644Z,484.40
2022-08-31T14:59:47.226Z,452.55
2022-08-31T15:02:21.818Z,460.02
2022-08-31T15:04:51.403Z,472.58
2022-08-31T15:07:21.705Z,434.25
2022-08-31T15:09:50.450Z,499.73
2022-08-31T15:12:19.436Z,406.27
2022-08-31T15:14:48.406Z,420.20
2022-08-31T15:17:19.520Z,441.50
2022-08-31T15:19:53.804Z,441.17
2022-08-31T15:22:26.525Z,450.45
2022-08-31T15:24:56.484Z,429.73
2022-08-31T15:27:29.162Z,449.10
2022-08-31T15:30:07.939Z,467.52
2022-08-31T15:32:39.934Z,416.42
2022-08-31T15:35:09.678Z,436.83
2022-08-31T15:37:40.957Z,481.92
2022-08-31T15:40:11.462Z,452.92
2022-08-31T15:42:43.857Z,476.05
2022-08-31T15:45:12.990Z,481.42
2022-08-31T15:47:59.801Z,482.33
2022-08-31T15:50:31.414Z,468.63
2022-08-31T15:53:09.547Z,499.08
2022-08-31T15:55:41.223Z,505.52
2022-08-31T15:58:10.898Z,330.73
2022-08-31T16:00:41.975Z,531.60
2022-08-31T16:03:12.791Z,545.33
2022-08-31T16:05:43.685Z,527.47
2022-08-31T16:08:14.490Z,521.50
2022-08-31T16:10:46.069Z,511.13
2022-08-31T16:13:16.423Z,527.88
2022-08-31T16:15:51.555Z,510.42
2022-08-31T16:18:22.020Z,535.35
2022-08-31T16:20:52.111Z,470.38
2022-08-31T16:23:24.940Z,440.73
2022-08-31T16:25:54.210Z,12.30
2022-08-31T16:28:23.085Z,10.43
2022-08-31T16:30:52.488Z,10.30
2022-08-31T16:33:21.826Z,9.80
2022-08-31T16:35:51.010Z,8.48
2022-08-31T16:38:20.146Z,9.30
2022-08-31T16:40:50.497Z,11.07
2022-08-31T16:43:19.273Z,11.90
2022-08-31T16:45:47.996Z,12.18
2022-08-31T16:48:33.841Z,12.45
2022-08-31T16:51:02.830Z,12.57
2022-08-31T16:53:32.271Z,13.25
2022-08-31T16:56:04.849Z,14.35
2022-08-31T16:58:51.194Z,15.02
2022-08-31T17:01:23.775Z,12.90
2022-08-31T17:03:56.063Z,16.13
2022-08-31T17:06:25.125Z,15.45
2022-08-31T17:08:57.816Z,14.45
2022-08-31T17:11:32.458Z,12.60
2022-08-31T17:14:02.451Z,373.05
2022-08-31T17:16:34.940Z,25.88
2022-08-31T17:19:06.706Z,16.25
2022-08-31T17:21:36.459Z,15.68
2022-08-31T17:24:11.374Z,12.05
2022-08-31T17:26:42.871Z,10.48
2022-08-31T17:29:11.951Z,11.82
2022-08-31T17:31:43.680Z,11.68
2022-08-31T17:34:14.751Z,11.10
2022-08-31T17:36:46.067Z,13.82
2022-08-31T17:39:16.995Z,10.98
2022-08-31T17:41:49.105Z,13.43
2022-08-31T17:44:19.038Z,13.65
2022-08-31T17:46:49.880Z,12.88
2022-08-31T17:49:20.830Z,13.98
2022-08-31T17:51:50.312Z,12.13
2022-08-31T17:54:22.655Z,14.93
2022-08-31T17:56:57.043Z,9.93
2022-08-31T17:59:28.480Z,12.93
2022-08-31T18:01:58.976Z,13.88
2022-08-31T18:04:29.093Z,14.43
2022-08-31T18:06:58.162Z,11.65
2022-08-31T18:09:28.378Z,12.70
2022-08-31T18:11:59.687Z,67.47
2022-08-31T18:14:31.410Z,18.77
2022-08-31T18:17:02.375Z,14.52
2022-08-31T18:19:32.521Z,10.82
2022-08-31T18:22:01.985Z,14.32
2022-08-31T18:24:35.731Z,13.30
2022-08-31T18:27:11.312Z,13.35
2022-08-31T18:29:43.210Z,13.18
2022-08-31T18:32:12.176Z,15.68
2022-08-31T18:34:45.057Z,14.13
2022-08-31T18:37:15.975Z,14.82
2022-08-31T18:40:05.327Z,14.77
2022-08-31T18:42:56.990Z,289.80
2022-08-31T18:45:30.855Z,81.45
2022-08-31T18:50:53.225Z,14.55
2022-08-31T18:53:28.897Z,14.95
2022-08-31T18:56:00.003Z,13.80
2022-08-31T18:58:30.307Z,12.70
2022-08-31T19:00:59.407Z,14.30
2022-08-31T19:03:28.962Z,18.30
2022-08-31T19:05:58.347Z,11.35
2022-08-31T19:08:27.910Z,9.68
2022-08-31T19:10:59.110Z,9.32
2022-08-31T19:13:32.019Z,10.65
2022-08-31T19:16:03.795Z,12.35
2022-08-31T19:18:39.727Z,7.47
2022-08-31T19:21:17.861Z,12.75
2022-08-31T19:23:46.744Z,9.88
2022-08-31T19:26:23.585Z,9.68
2022-08-31T19:28:54.552Z,9.55
2022-08-31T19:31:26.072Z,8.60
2022-08-31T19:33:57.068Z,8.68
2022-08-31T19:36:27.596Z,7.20
2022-08-31T19:38:57.704Z,8.40
2022-08-31T19:41:28.031Z,6.30
2022-08-31T19:44:08.978Z,78.80
2022-08-31T19:46:52.524Z,11.18
2022-08-31T19:49:21.561Z,115.40
2022-08-31T19:51:57.734Z,15.55
2022-08-31T19:54:27.385Z,10.23
2022-08-31T19:56:56.147Z,6.47
2022-08-31T19:59:26.983Z,7.05
2022-08-31T20:01:59.375Z,6.05
2022-08-31T20:04:33.955Z,6.38
2022-08-31T20:07:06.609Z,6.22
2022-08-31T20:09:36.663Z,5.65
2022-08-31T20:12:06.104Z,5.30
2022-08-31T20:14:36.643Z,5.03
2022-08-31T20:17:06.444Z,5.05
2022-08-31T20:19:37.295Z,5.60
2022-08-31T20:22:08.221Z,13.45
2022-08-31T20:24:44.841Z,12.45
2022-08-31T20:27:18.501Z,39.78
2022-08-31T20:29:49.398Z,12.82
2022-08-31T20:32:20.721Z,10.80
2022-08-31T20:34:53.362Z,13.60
2022-08-31T20:37:23.909Z,20.63
2022-08-31T20:39:53.272Z,20.98
2022-08-31T20:42:25.916Z,17.27
2022-08-31T20:44:56.279Z,13.48
2022-08-31T20:47:42.645Z,15.45
2022-08-31T20:50:11.926Z,11.85
2022-08-31T20:52:40.670Z,12.87
2022-08-31T20:55:12.566Z,8.00
2022-08-31T20:57:41.466Z,24.42
2022-08-31T21:00:14.192Z,19.83
2022-08-31T21:02:43.240Z,18.73
2022-08-31T21:05:37.026Z,16.43
2022-08-31T21:08:07.805Z,19.67
2022-08-31T21:10:41.625Z,16.57
2022-08-31T21:13:17.193Z,13.55
2022-08-31T21:15:51.870Z,14.37
2022-08-31T21:18:23.392Z,16.23
2022-08-31T21:20:56.957Z,20.00
2022-08-31T21:23:31.022Z,13.37
2022-08-31T21:26:00.965Z,13.17
2022-08-31T21:28:29.796Z,16.43
2022-08-31T21:31:16.564Z,9.37
2022-08-31T21:33:48.313Z,12.23
2022-08-31T21:36:17.901Z,12.37
2022-08-31T21:38:47.859Z,10.63
2022-08-31T21:41:22.668Z,12.03
2022-08-31T21:43:51.329Z,13.07
2022-08-31T21:46:25.305Z,8.23
2022-08-31T21:48:56.183Z,8.97
2022-08-31T21:51:28.105Z,11.33
2022-08-31T21:54:00.590Z,12.60
2022-08-31T21:56:36.113Z,13.50
2022-08-31T21:59:06.429Z,11.13
2022-08-31T22:01:38.146Z,9.20
2022-08-31T22:04:07.855Z,11.47
2022-08-31T22:06:37.194Z,13.47
2022-08-31T22:09:09.378Z,19.33
2022-08-31T22:11:41.811Z,19.47
2022-08-31T22:14:11.902Z,15.70
2022-08-31T22:16:48.638Z,19.47
2022-08-31T22:19:23.284Z,20.80
2022-08-31T22:21:56.987Z,25.57
2022-08-31T22:24:32.173Z,21.67
2022-08-31T22:27:03.369Z,15.77
2022-08-31T22:29:34.153Z,16.30
2022-08-31T22:32:08.774Z,14.40
2022-08-31T22:34:37.881Z,11.83
2022-08-31T22:37:08.349Z,10.77
2022-08-31T22:39:37.066Z,11.23
2022-08-31T22:42:06.046Z,9.07
2022-08-31T22:44:36.697Z,8.73
2022-08-31T22:47:07.409Z,8.47
2022-08-31T22:49:36.226Z,10.63
2022-08-31T22:52:07.420Z,13.87
2022-08-31T22:54:36.978Z,10.20
2022-08-31T22:57:05.965Z,11.63
2022-08-31T22:59:36.319Z,9.33
2022-08-31T23:02:10.926Z,14.00
2022-08-31T23:04:43.640Z,10.23
2022-08-31T23:07:16.782Z,12.80
2022-08-31T23:09:46.529Z,15.03
2022-08-31T23:12:15.151Z,14.23
2022-08-31T23:14:43.759Z,12.10
2022-08-31T23:17:16.908Z,11.57
2022-08-31T23:19:46.905Z,9.73
2022-08-31T23:22:17.661Z,11.33
2022-08-31T23:24:52.015Z,6.60
2022-08-31T23:27:22.710Z,5.70
2022-08-31T23:29:53.342Z,13.57
2022-08-31T23:32:27.960Z,9.87
2022-08-31T23:34:58.608Z,15.63
2022-08-31T23:37:30.502Z,10.90
2022-08-31T23:40:00.567Z,12.37
2022-08-31T23:42:29.826Z,13.60
2022-08-31T23:44:59.122Z,9.87
2022-08-31T23:47:31.840Z,8.37
2022-08-31T23:50:04.950Z,7.77
2022-08-31T23:52:41.640Z,7.87
2022-08-31T23:55:12.121Z,6.93
2022-08-31T23:57:42.073Z,9.37
